sensor_id;sensor_type;location;lat;lon;timestamp;pressure;altitude;pressure_sealevel;temperature;humidity
8047;BME280;74083;42.516;23.358;2024-01-30T00:01:41;89903.41;;;0.32;66.30
8047;BME280;74083;42.516;23.358;2024-01-30T00:04:26;89909.19;;;0.31;66.42
8047;BME280;74083;42.516;23.358;2024-01-30T00:07:12;89909.19;;;0.32;66.16
8047;BME280;74083;42.516;23.358;2024-01-30T00:09:57;89905.91;;;0.29;66.28
8047;BME280;74083;42.516;23.358;2024-01-30T00:12:43;89910.00;;;0.30;66.35
8047;BME280;74083;42.516;23.358;2024-01-30T00:15:28;89905.09;;;0.28;66.40
8047;BME280;74083;42.516;23.358;2024-01-30T00:18:15;89903.44;;;0.29;66.08
8047;BME280;74083;42.516;23.358;2024-01-30T00:21:01;89906.75;;;0.28;66.07
8047;BME280;74083;42.516;23.358;2024-01-30T00:23:47;89907.56;;;0.27;66.26
8047;BME280;74083;42.516;23.358;2024-01-30T00:26:33;89901.78;;;0.28;65.84
8047;BME280;74083;42.516;23.358;2024-01-30T00:29:18;89915.78;;;0.30;65.72
8047;BME280;74083;42.516;23.358;2024-01-30T00:32:06;89911.69;;;0.28;65.81
8047;BME280;74083;42.516;23.358;2024-01-30T00:34:53;89915.00;;;0.28;65.53
8047;BME280;74083;42.516;23.358;2024-01-30T00:37:38;89910.91;;;0.26;65.85
8047;BME280;74083;42.516;23.358;2024-01-30T00:40:24;89901.81;;;0.25;66.05
8047;BME280;74083;42.516;23.358;2024-01-30T00:43:10;89904.31;;;0.25;66.09
8047;BME280;74083;42.516;23.358;2024-01-30T00:45:55;89910.91;;;0.26;65.97
8047;BME280;74083;42.516;23.358;2024-01-30T00:48:42;89905.97;;;0.24;65.74
8047;BME280;74083;42.516;23.358;2024-01-30T00:51:29;89914.25;;;0.23;66.07
8047;BME280;74083;42.516;23.358;2024-01-30T00:54:15;89914.25;;;0.23;65.92
8047;BME280;74083;42.516;23.358;2024-01-30T00:57:00;89896.91;;;0.22;65.78
8047;BME280;74083;42.516;23.358;2024-01-30T00:59:46;89898.56;;;0.23;65.79
8047;BME280;74083;42.516;23.358;2024-01-30T01:02:32;89904.34;;;0.23;65.73
8047;BME280;74083;42.516;23.358;2024-01-30T01:05:18;89898.56;;;0.21;65.82
8047;BME280;74083;42.516;23.358;2024-01-30T01:08:06;89903.50;;;0.23;65.93
8047;BME280;74083;42.516;23.358;2024-01-30T01:10:51;89905.16;;;0.21;65.94
8047;BME280;74083;42.516;23.358;2024-01-30T01:13:38;89907.66;;;0.21;65.72
8047;BME280;74083;42.516;23.358;2024-01-30T01:16:24;89908.50;;;0.20;65.87
8047;BME280;74083;42.516;23.358;2024-01-30T01:19:10;89910.16;;;0.19;65.84
8047;BME280;74083;42.516;23.358;2024-01-30T01:21:55;89909.34;;;0.19;65.97
8047;BME280;74083;42.516;23.358;2024-01-30T01:24:42;89903.59;;;0.17;65.75
8047;BME280;74083;42.516;23.358;2024-01-30T01:27:27;89908.50;;;0.18;65.65
8047;BME280;74083;42.516;23.358;2024-01-30T01:30:13;89904.38;;;0.19;65.67
8047;BME280;74083;42.516;23.358;2024-01-30T01:33:05;89905.16;;;0.21;65.38
8047;BME280;74083;42.516;23.358;2024-01-30T01:35:51;89905.16;;;0.21;65.49
8047;BME280;74083;42.516;23.358;2024-01-30T01:38:37;89910.16;;;0.18;65.56
8047;BME280;74083;42.516;23.358;2024-01-30T01:41:25;89905.22;;;0.18;65.78
8047;BME280;74083;42.516;23.358;2024-01-30T01:44:15;89900.22;;;0.21;65.71
8047;BME280;74083;42.516;23.358;2024-01-30T01:47:00;89901.06;;;0.18;65.45
8047;BME280;74083;42.516;23.358;2024-01-30T01:49:46;89893.69;;;0.17;65.82
8047;BME280;74083;42.516;23.358;2024-01-30T01:52:32;89899.47;;;0.17;65.72
8047;BME280;74083;42.516;23.358;2024-01-30T01:55:19;89906.84;;;0.19;65.64
8047;BME280;74083;42.516;23.358;2024-01-30T01:58:09;89905.25;;;0.16;65.63
8047;BME280;74083;42.516;23.358;2024-01-30T02:00:57;89899.53;;;0.11;65.82
8047;BME280;74083;42.516;23.358;2024-01-30T02:03:43;89904.44;;;0.14;65.80
8047;BME280;74083;42.516;23.358;2024-01-30T02:06:29;89905.28;;;0.15;65.60
8047;BME280;74083;42.516;23.358;2024-01-30T02:09:15;89901.97;;;0.13;65.40
8047;BME280;74083;42.516;23.358;2024-01-30T02:12:00;89903.63;;;0.14;65.60
8047;BME280;74083;42.516;23.358;2024-01-30T02:14:48;89903.63;;;0.14;65.50
8047;BME280;74083;42.516;23.358;2024-01-30T02:17:34;89911.88;;;0.13;65.44
8047;BME280;74083;42.516;23.358;2024-01-30T02:20:20;89906.94;;;0.14;65.81
8047;BME280;74083;42.516;23.358;2024-01-30T02:23:09;89911.84;;;0.16;65.54
8047;BME280;74083;42.516;23.358;2024-01-30T02:25:55;89907.75;;;0.13;65.43
8047;BME280;74083;42.516;23.358;2024-01-30T02:28:41;89910.22;;;0.15;65.00
8047;BME280;74083;42.516;23.358;2024-01-30T02:31:26;89904.44;;;0.14;65.44
8047;BME280;74083;42.516;23.358;2024-01-30T02:34:12;89901.19;;;0.11;65.63
8047;BME280;74083;42.516;23.358;2024-01-30T02:36:57;89906.94;;;0.13;65.47
8047;BME280;74083;42.516;23.358;2024-01-30T02:39:44;89902.88;;;0.09;65.58
8047;BME280;74083;42.516;23.358;2024-01-30T02:42:30;89900.38;;;0.09;65.46
8047;BME280;74083;42.516;23.358;2024-01-30T02:45:15;89900.38;;;0.09;65.47
8047;BME280;74083;42.516;23.358;2024-01-30T02:48:00;89893.75;;;0.09;65.18
8047;BME280;74083;42.516;23.358;2024-01-30T02:50:46;89894.56;;;0.10;65.43
8047;BME280;74083;42.516;23.358;2024-01-30T02:53:31;89901.97;;;0.13;65.20
8047;BME280;74083;42.516;23.358;2024-01-30T02:56:18;89910.25;;;0.12;65.47
8047;BME280;74083;42.516;23.358;2024-01-30T02:59:04;89902.84;;;0.10;65.53
8047;BME280;74083;42.516;23.358;2024-01-30T03:01:50;89897.06;;;0.10;65.51
8047;BME280;74083;42.516;23.358;2024-01-30T03:04:35;89902.00;;;0.10;65.28
8047;BME280;74083;42.516;23.358;2024-01-30T03:07:21;89899.56;;;0.07;65.19
8047;BME280;74083;42.516;23.358;2024-01-30T03:10:07;89897.06;;;0.10;65.23
8047;BME280;74083;42.516;23.358;2024-01-30T03:12:54;89885.56;;;0.06;65.38
8047;BME280;74083;42.516;23.358;2024-01-30T03:15:40;89890.56;;;0.03;65.30
8047;BME280;74083;42.516;23.358;2024-01-30T03:18:25;89893.81;;;0.03;65.21
8047;BME280;74083;42.516;23.358;2024-01-30T03:21:11;89893.81;;;0.05;65.13
8047;BME280;74083;42.516;23.358;2024-01-30T03:23:57;89895.50;;;0.03;65.30
8047;BME280;74083;42.516;23.358;2024-01-30T03:26:43;89884.78;;;0.00;65.32
8047;BME280;74083;42.516;23.358;2024-01-30T03:29:30;89879.78;;;0.04;65.31
8047;BME280;74083;42.516;23.358;2024-01-30T03:32:16;89886.41;;;0.03;65.22
8047;BME280;74083;42.516;23.358;2024-01-30T03:35:01;89883.13;;;0.03;65.20
8047;BME280;74083;42.516;23.358;2024-01-30T03:37:47;89883.13;;;0.03;65.40
8047;BME280;74083;42.516;23.358;2024-01-30T03:40:32;89879.81;;;0.00;65.34
8047;BME280;74083;42.516;23.358;2024-01-30T03:43:18;89875.69;;;0.01;65.41
8047;BME280;74083;42.516;23.358;2024-01-30T03:46:05;89876.50;;;0.02;65.49
8047;BME280;74083;42.516;23.358;2024-01-30T03:48:50;89873.25;;;-0.01;65.35
8047;BME280;74083;42.516;23.358;2024-01-30T03:51:36;89878.19;;;-0.01;65.29
8047;BME280;74083;42.516;23.358;2024-01-30T03:54:21;89871.59;;;-0.02;65.53
8047;BME280;74083;42.516;23.358;2024-01-30T03:57:07;89858.38;;;-0.02;65.22
8047;BME280;74083;42.516;23.358;2024-01-30T03:59:53;89863.34;;;-0.02;65.45
8047;BME280;74083;42.516;23.358;2024-01-30T04:02:39;89873.25;;;-0.02;65.19
8047;BME280;74083;42.516;23.358;2024-01-30T04:05:25;89871.59;;;-0.02;65.40
8047;BME280;74083;42.516;23.358;2024-01-30T04:08:11;89867.47;;;-0.03;65.00
8047;BME280;74083;42.516;23.358;2024-01-30T04:10:56;89874.94;;;-0.04;65.71
8047;BME280;74083;42.516;23.358;2024-01-30T04:13:41;89875.72;;;-0.01;65.52
8047;BME280;74083;42.516;23.358;2024-01-30T04:16:28;89874.91;;;-0.03;65.26
8047;BME280;74083;42.516;23.358;2024-01-30T04:19:14;89870.81;;;-0.04;65.47
8047;BME280;74083;42.516;23.358;2024-01-30T04:22:00;89869.97;;;-0.06;65.49
8047;BME280;74083;42.516;23.358;2024-01-30T04:24:45;89885.72;;;-0.07;65.56
8047;BME280;74083;42.516;23.358;2024-01-30T04:27:31;89883.19;;;-0.05;65.35
8047;BME280;74083;42.516;23.358;2024-01-30T04:30:16;89886.47;;;-0.02;65.10
8047;BME280;74083;42.516;23.358;2024-01-30T04:33:02;89877.44;;;-0.07;65.37
8047;BME280;74083;42.516;23.358;2024-01-30T04:35:49;89879.09;;;-0.08;65.38
8047;BME280;74083;42.516;23.358;2024-01-30T04:38:36;89880.75;;;-0.08;65.38
8047;BME280;74083;42.516;23.358;2024-01-30T04:41:21;89886.53;;;-0.08;65.29
8047;BME280;74083;42.516;23.358;2024-01-30T04:44:06;89884.88;;;-0.07;65.29
8047;BME280;74083;42.516;23.358;2024-01-30T04:46:52;89889.00;;;-0.06;65.25
8047;BME280;74083;42.516;23.358;2024-01-30T04:49:38;89898.09;;;-0.08;65.41
8047;BME280;74083;42.516;23.358;2024-01-30T04:52:26;89898.97;;;-0.11;65.33
8047;BME280;74083;42.516;23.358;2024-01-30T04:55:11;89894.00;;;-0.11;65.36
8047;BME280;74083;42.516;23.358;2024-01-30T04:57:57;89896.50;;;-0.12;65.13
8047;BME280;74083;42.516;23.358;2024-01-30T05:00:42;89903.94;;;-0.12;65.24
8047;BME280;74083;42.516;23.358;2024-01-30T05:03:28;89905.59;;;-0.13;65.16
8047;BME280;74083;42.516;23.358;2024-01-30T05:06:24;89907.25;;;-0.13;65.22
8047;BME280;74083;42.516;23.358;2024-01-30T05:09:11;89909.72;;;-0.13;65.29
8047;BME280;74083;42.516;23.358;2024-01-30T05:11:57;89910.50;;;-0.10;65.34
8047;BME280;74083;42.516;23.358;2024-01-30T05:14:43;89915.44;;;-0.07;64.86
8047;BME280;74083;42.516;23.358;2024-01-30T05:17:28;89913.81;;;-0.11;65.11
8047;BME280;74083;42.516;23.358;2024-01-30T05:20:13;89922.91;;;-0.11;65.22
8047;BME280;74083;42.516;23.358;2024-01-30T05:22:59;89917.97;;;-0.13;65.15
8047;BME280;74083;42.516;23.358;2024-01-30T05:25:45;89917.16;;;-0.15;65.32
8047;BME280;74083;42.516;23.358;2024-01-30T05:28:31;89918.00;;;-0.16;65.23
8047;BME280;74083;42.516;23.358;2024-01-30T05:31:17;89923.75;;;-0.14;65.19
8047;BME280;74083;42.516;23.358;2024-01-30T05:34:03;89913.06;;;-0.16;65.11
8047;BME280;74083;42.516;23.358;2024-01-30T05:36:49;89927.91;;;-0.17;65.16
8047;BME280;74083;42.516;23.358;2024-01-30T05:39:34;89925.47;;;-0.19;65.30
8047;BME280;74083;42.516;23.358;2024-01-30T05:42:21;89927.13;;;-0.19;65.12
8047;BME280;74083;42.516;23.358;2024-01-30T05:45:08;89927.13;;;-0.18;64.99
8047;BME280;74083;42.516;23.358;2024-01-30T05:47:54;89921.34;;;-0.20;65.15
8047;BME280;74083;42.516;23.358;2024-01-30T05:50:39;89922.19;;;-0.21;64.92
8047;BME280;74083;42.516;23.358;2024-01-30T05:53:25;89919.72;;;-0.22;64.91
8047;BME280;74083;42.516;23.358;2024-01-30T05:56:11;89918.91;;;-0.23;64.99
8047;BME280;74083;42.516;23.358;2024-01-30T05:58:58;89917.25;;;-0.21;64.95
8047;BME280;74083;42.516;23.358;2024-01-30T06:01:46;89920.56;;;-0.22;64.67
8047;BME280;74083;42.516;23.358;2024-01-30T06:04:31;89916.44;;;-0.23;64.92
8047;BME280;74083;42.516;23.358;2024-01-30T06:07:17;89922.19;;;-0.21;64.80
8047;BME280;74083;42.516;23.358;2024-01-30T06:10:03;89923.84;;;-0.23;65.01
8047;BME280;74083;42.516;23.358;2024-01-30T06:12:49;89931.28;;;-0.23;65.02
8047;BME280;74083;42.516;23.358;2024-01-30T06:15:36;89929.66;;;-0.25;65.17
8047;BME280;74083;42.516;23.358;2024-01-30T06:18:21;89928.84;;;-0.24;65.26
8047;BME280;74083;42.516;23.358;2024-01-30T06:21:07;89931.28;;;-0.21;64.93
8047;BME280;74083;42.516;23.358;2024-01-30T06:23:52;89925.53;;;-0.25;65.04
8047;BME280;74083;42.516;23.358;2024-01-30T06:26:38;89927.19;;;-0.25;65.02
8047;BME280;74083;42.516;23.358;2024-01-30T06:29:24;89923.03;;;-0.23;65.15
8047;BME280;74083;42.516;23.358;2024-01-30T06:32:12;89922.22;;;-0.24;65.15
8047;BME280;74083;42.516;23.358;2024-01-30T06:34:57;89921.41;;;-0.24;65.29
8047;BME280;74083;42.516;23.358;2024-01-30T06:37:43;89922.22;;;-0.24;65.39
8047;BME280;74083;42.516;23.358;2024-01-30T06:40:29;89921.38;;;-0.21;65.26
8047;BME280;74083;42.516;23.358;2024-01-30T06:43:14;89933.78;;;-0.26;65.19
8047;BME280;74083;42.516;23.358;2024-01-30T06:46:00;89930.47;;;-0.22;65.38
8047;BME280;74083;42.516;23.358;2024-01-30T06:48:47;89933.81;;;-0.27;65.40
8047;BME280;74083;42.516;23.358;2024-01-30T06:51:32;89936.28;;;-0.24;65.22
8047;BME280;74083;42.516;23.358;2024-01-30T06:54:17;89942.00;;;-0.22;65.04
8047;BME280;74083;42.516;23.358;2024-01-30T06:57:03;89942.88;;;-0.25;65.23
8047;BME280;74083;42.516;23.358;2024-01-30T06:59:55;89946.13;;;-0.20;65.05
8047;BME280;74083;42.516;23.358;2024-01-30T07:02:41;89936.28;;;-0.24;65.21
8047;BME280;74083;42.516;23.358;2024-01-30T07:05:28;89933.78;;;-0.26;65.14
8047;BME280;74083;42.516;23.358;2024-01-30T07:08:15;89938.78;;;-0.29;65.33
8047;BME280;74083;42.516;23.358;2024-01-30T07:11:01;89935.47;;;-0.28;65.16
8047;BME280;74083;42.516;23.358;2024-01-30T07:13:47;89924.78;;;-0.31;65.34
8047;BME280;74083;42.516;23.358;2024-01-30T07:16:32;89937.91;;;-0.25;65.01
8047;BME280;74083;42.516;23.358;2024-01-30T07:19:18;89941.91;;;-0.15;64.86
8047;BME280;74083;42.516;23.358;2024-01-30T07:22:05;89935.44;;;-0.25;64.96
8047;BME280;74083;42.516;23.358;2024-01-30T07:24:51;89936.25;;;-0.23;64.98
8047;BME280;74083;42.516;23.358;2024-01-30T07:27:36;89942.06;;;-0.27;65.08
8047;BME280;74083;42.516;23.358;2024-01-30T07:30:22;89940.47;;;-0.31;65.23
8047;BME280;74083;42.516;23.358;2024-01-30T07:33:08;89933.84;;;-0.30;65.32
8047;BME280;74083;42.516;23.358;2024-01-30T07:35:54;89933.84;;;-0.32;65.09
8047;BME280;74083;42.516;23.358;2024-01-30T07:38:41;89932.19;;;-0.30;65.21
8047;BME280;74083;42.516;23.358;2024-01-30T07:41:26;89932.94;;;-0.23;65.09
8047;BME280;74083;42.516;23.358;2024-01-30T07:44:12;89929.63;;;-0.22;64.82
8047;BME280;74083;42.516;23.358;2024-01-30T07:46:57;89930.47;;;-0.22;64.83
8047;BME280;74083;42.516;23.358;2024-01-30T07:49:43;89932.19;;;-0.27;64.83
8047;BME280;74083;42.516;23.358;2024-01-30T07:52:28;89936.22;;;-0.18;64.93
8047;BME280;74083;42.516;23.358;2024-01-30T07:55:15;89936.34;;;-0.30;64.93
8047;BME280;74083;42.516;23.358;2024-01-30T07:58:01;89937.13;;;-0.28;64.72
8047;BME280;74083;42.516;23.358;2024-01-30T08:00:48;89931.44;;;-0.36;65.13
8047;BME280;74083;42.516;23.358;2024-01-30T08:03:35;89935.47;;;-0.29;64.96
8047;BME280;74083;42.516;23.358;2024-01-30T08:06:23;89931.34;;;-0.29;64.85
8047;BME280;74083;42.516;23.358;2024-01-30T08:09:09;89936.31;;;-0.29;64.97
8047;BME280;74083;42.516;23.358;2024-01-30T08:11:56;89937.94;;;-0.29;65.25
8047;BME280;74083;42.516;23.358;2024-01-30T08:14:42;89940.41;;;-0.26;64.95
8047;BME280;74083;42.516;23.358;2024-01-30T08:17:27;89938.69;;;-0.18;64.60
8047;BME280;74083;42.516;23.358;2024-01-30T08:20:12;89934.53;;;-0.16;64.44
8047;BME280;74083;42.516;23.358;2024-01-30T08:22:59;89928.84;;;-0.26;64.98
8047;BME280;74083;42.516;23.358;2024-01-30T08:25:45;89923.88;;;-0.26;65.09
8047;BME280;74083;42.516;23.358;2024-01-30T08:28:32;89913.25;;;-0.32;65.33
8047;BME280;74083;42.516;23.358;2024-01-30T08:31:17;89923.88;;;-0.26;65.21
8047;BME280;74083;42.516;23.358;2024-01-30T08:34:03;89923.84;;;-0.23;65.02
8047;BME280;74083;42.516;23.358;2024-01-30T08:36:49;89923.78;;;-0.17;64.63
8047;BME280;74083;42.516;23.358;2024-01-30T08:39:34;89931.31;;;-0.26;64.93
8047;BME280;74083;42.516;23.358;2024-01-30T08:42:19;89931.38;;;-0.30;65.04
8047;BME280;74083;42.516;23.358;2024-01-30T08:45:09;89926.34;;;-0.23;65.15
8047;BME280;74083;42.516;23.358;2024-01-30T08:47:54;89941.25;;;-0.29;65.32
8047;BME280;74083;42.516;23.358;2024-01-30T08:50:40;89940.41;;;-0.26;65.28
8047;BME280;74083;42.516;23.358;2024-01-30T08:53:26;89942.88;;;-0.25;65.06
8047;BME280;74083;42.516;23.358;2024-01-30T08:56:12;89944.56;;;-0.28;65.07
8047;BME280;74083;42.516;23.358;2024-01-30T08:58:58;89942.91;;;-0.28;65.27
8047;BME280;74083;42.516;23.358;2024-01-30T09:01:45;89948.66;;;-0.26;65.05
8047;BME280;74083;42.516;23.358;2024-01-30T09:04:31;89949.47;;;-0.24;64.93
8047;BME280;74083;42.516;23.358;2024-01-30T09:07:16;89942.06;;;-0.27;65.15
8047;BME280;74083;42.516;23.358;2024-01-30T09:10:02;89950.41;;;-0.32;65.50
8047;BME280;74083;42.516;23.358;2024-01-30T09:12:48;89949.53;;;-0.30;65.51
8047;BME280;74083;42.516;23.358;2024-01-30T09:15:33;89946.13;;;-0.18;65.12
8047;BME280;74083;42.516;23.358;2024-01-30T09:18:21;89938.75;;;-0.26;65.30
8047;BME280;74083;42.516;23.358;2024-01-30T09:21:06;89937.91;;;-0.25;65.03
8047;BME280;74083;42.516;23.358;2024-01-30T09:23:54;89940.28;;;-0.14;64.70
8047;BME280;74083;42.516;23.358;2024-01-30T09:26:40;89937.84;;;-0.19;64.58
8047;BME280;74083;42.516;23.358;2024-01-30T09:29:25;89941.22;;;-0.24;65.20
8047;BME280;74083;42.516;23.358;2024-01-30T09:32:11;89941.25;;;-0.29;65.50
8047;BME280;74083;42.516;23.358;2024-01-30T09:34:57;89945.34;;;-0.25;65.35
8047;BME280;74083;42.516;23.358;2024-01-30T09:37:43;89937.91;;;-0.26;65.45
8047;BME280;74083;42.516;23.358;2024-01-30T09:40:29;89947.81;;;-0.26;65.51
8047;BME280;74083;42.516;23.358;2024-01-30T09:43:17;89945.28;;;-0.20;65.17
8047;BME280;74083;42.516;23.358;2024-01-30T09:46:05;89937.91;;;-0.26;65.16
8047;BME280;74083;42.516;23.358;2024-01-30T09:48:53;89937.16;;;-0.31;65.64
8047;BME280;74083;42.516;23.358;2024-01-30T09:51:42;89929.72;;;-0.31;65.46
8047;BME280;74083;42.516;23.358;2024-01-30T09:54:30;89929.69;;;-0.27;65.38
8047;BME280;74083;42.516;23.358;2024-01-30T09:57:15;89927.25;;;-0.31;65.54
8047;BME280;74083;42.516;23.358;2024-01-30T10:00:01;89923.06;;;-0.26;65.35
8047;BME280;74083;42.516;23.358;2024-01-30T10:02:48;89923.00;;;-0.19;64.96
8047;BME280;74083;42.516;23.358;2024-01-30T10:05:35;89916.44;;;-0.23;65.17
8047;BME280;74083;42.516;23.358;2024-01-30T10:08:23;89913.09;;;-0.20;64.98
8047;BME280;74083;42.516;23.358;2024-01-30T10:11:09;89920.56;;;-0.22;65.25
8047;BME280;74083;42.516;23.358;2024-01-30T10:13:55;89927.97;;;-0.23;65.34
8047;BME280;74083;42.516;23.358;2024-01-30T10:16:41;89928.75;;;-0.17;65.32
8047;BME280;74083;42.516;23.358;2024-01-30T10:19:26;89918.09;;;-0.26;65.57
8047;BME280;74083;42.516;23.358;2024-01-30T10:22:11;89923.13;;;-0.31;65.69
8047;BME280;74083;42.516;23.358;2024-01-30T10:25:00;89921.41;;;-0.26;65.48
8047;BME280;74083;42.516;23.358;2024-01-30T10:27:45;89932.94;;;-0.22;65.63
8047;BME280;74083;42.516;23.358;2024-01-30T10:30:31;89932.94;;;-0.23;65.53
8047;BME280;74083;42.516;23.358;2024-01-30T10:33:16;89932.97;;;-0.26;65.44
8047;BME280;74083;42.516;23.358;2024-01-30T10:36:03;89933.84;;;-0.30;65.84
8047;BME280;74083;42.516;23.358;2024-01-30T10:38:51;89932.13;;;-0.24;65.60
8047;BME280;74083;42.516;23.358;2024-01-30T10:41:43;89923.06;;;-0.26;65.37
8047;BME280;74083;42.516;23.358;2024-01-30T10:44:30;89919.63;;;-0.13;65.29
8047;BME280;74083;42.516;23.358;2024-01-30T10:47:26;89916.44;;;-0.23;65.56
8047;BME280;74083;42.516;23.358;2024-01-30T10:50:12;89927.97;;;-0.23;65.73
8047;BME280;74083;42.516;23.358;2024-01-30T10:52:59;89921.41;;;-0.26;65.51
8047;BME280;74083;42.516;23.358;2024-01-30T10:55:47;89920.59;;;-0.25;65.76
8047;BME280;74083;42.516;23.358;2024-01-30T10:58:35;89919.03;;;-0.35;66.35
8047;BME280;74083;42.516;23.358;2024-01-30T11:01:22;89924.81;;;-0.34;66.31
8047;BME280;74083;42.516;23.358;2024-01-30T11:04:08;89919.22;;;-0.51;67.35
8047;BME280;74083;42.516;23.358;2024-01-30T11:06:54;89906.66;;;-0.35;67.13
8047;BME280;74083;42.516;23.358;2024-01-30T11:09:39;89917.53;;;-0.49;67.98
8047;BME280;74083;42.516;23.358;2024-01-30T11:12:26;89906.00;;;-0.52;67.75
8047;BME280;74083;42.516;23.358;2024-01-30T11:15:14;89908.56;;;-0.61;68.46
8047;BME280;74083;42.516;23.358;2024-01-30T11:18:00;89897.06;;;-0.62;69.64
8047;BME280;74083;42.516;23.358;2024-01-30T11:20:46;89896.19;;;-0.61;69.48
8047;BME280;74083;42.516;23.358;2024-01-30T11:23:34;89898.63;;;-0.53;69.56
8047;BME280;74083;42.516;23.358;2024-01-30T11:26:24;89899.47;;;-0.56;69.96
8047;BME280;74083;42.516;23.358;2024-01-30T11:29:13;89896.88;;;-0.47;69.94
8047;BME280;74083;42.516;23.358;2024-01-30T11:32:01;89897.78;;;-0.54;70.34
8047;BME280;74083;42.516;23.358;2024-01-30T11:34:47;89891.19;;;-0.55;69.71
8047;BME280;74083;42.516;23.358;2024-01-30T11:37:37;89883.66;;;-0.44;69.27
8047;BME280;74083;42.516;23.358;2024-01-30T11:40:23;89891.03;;;-0.40;69.88
8047;BME280;74083;42.516;23.358;2024-01-30T11:43:10;89883.66;;;-0.44;70.10
8047;BME280;74083;42.516;23.358;2024-01-30T11:45:56;89892.72;;;-0.43;69.87
8047;BME280;74083;42.516;23.358;2024-01-30T11:48:44;89887.66;;;-0.33;69.97
8047;BME280;74083;42.516;23.358;2024-01-30T11:51:31;89891.84;;;-0.39;69.46
8047;BME280;74083;42.516;23.358;2024-01-30T11:54:17;89879.41;;;-0.35;69.61
8047;BME280;74083;42.516;23.358;2024-01-30T11:57:04;89879.38;;;-0.32;69.19
8047;BME280;74083;42.516;23.358;2024-01-30T11:59:50;89871.16;;;-0.34;69.41
8047;BME280;74083;42.516;23.358;2024-01-30T12:02:35;89865.31;;;-0.28;69.43
8047;BME280;74083;42.516;23.358;2024-01-30T12:05:23;89857.00;;;-0.23;69.00
8047;BME280;74083;42.516;23.358;2024-01-30T12:08:15;89855.13;;;-0.04;68.44
8047;BME280;74083;42.516;23.358;2024-01-30T12:11:00;89848.56;;;-0.08;68.49
8047;BME280;74083;42.516;23.358;2024-01-30T12:13:49;89849.41;;;-0.11;68.52
8047;BME280;74083;42.516;23.358;2024-01-30T12:16:36;89847.72;;;-0.09;68.72
8047;BME280;74083;42.516;23.358;2024-01-30T12:19:22;89852.53;;;0.05;68.19
8047;BME280;74083;42.516;23.358;2024-01-30T12:22:10;89851.00;;;-0.04;68.28
8047;BME280;74083;42.516;23.358;2024-01-30T12:24:56;89857.44;;;0.08;67.76
8047;BME280;74083;42.516;23.358;2024-01-30T12:27:43;89853.28;;;0.10;67.54
8047;BME280;74083;42.516;23.358;2024-01-30T12:30:29;89851.59;;;0.12;67.74
8047;BME280;74083;42.516;23.358;2024-01-30T12:33:16;89845.88;;;0.09;67.83
8047;BME280;74083;42.516;23.358;2024-01-30T12:36:02;89843.53;;;-0.01;67.78
8047;BME280;74083;42.516;23.358;2024-01-30T12:38:51;89845.13;;;0.00;67.71
8047;BME280;74083;42.516;23.358;2024-01-30T12:41:37;89843.31;;;0.15;67.51
8047;BME280;74083;42.516;23.358;2024-01-30T12:44:23;89838.41;;;0.10;67.24
8047;BME280;74083;42.516;23.358;2024-01-30T12:47:09;89838.41;;;0.12;67.35
8047;BME280;74083;42.516;23.358;2024-01-30T12:49:55;89835.03;;;0.16;67.29
8047;BME280;74083;42.516;23.358;2024-01-30T12:52:40;89834.28;;;0.11;67.38
8047;BME280;74083;42.516;23.358;2024-01-30T12:55:28;89834.31;;;0.06;67.42
8047;BME280;74083;42.516;23.358;2024-01-30T12:58:14;89821.81;;;0.15;67.29
8047;BME280;74083;42.516;23.358;2024-01-30T13:01:00;89830.06;;;0.17;67.18
8047;BME280;74083;42.516;23.358;2024-01-30T13:03:46;89826.50;;;0.35;66.69
8047;BME280;74083;42.516;23.358;2024-01-30T13:06:32;89822.25;;;0.43;66.37
8047;BME280;74083;42.516;23.358;2024-01-30T13:09:18;89825.34;;;0.57;65.58
8047;BME280;74083;42.516;23.358;2024-01-30T13:12:06;89821.25;;;0.53;65.57
8047;BME280;74083;42.516;23.358;2024-01-30T13:14:52;89809.03;;;0.44;65.58
8047;BME280;74083;42.516;23.358;2024-01-30T13:17:38;89812.38;;;0.40;65.92
8047;BME280;74083;42.516;23.358;2024-01-30T13:20:24;89814.00;;;0.42;65.32
8047;BME280;74083;42.516;23.358;2024-01-30T13:23:09;89814.13;;;0.35;66.03
8047;BME280;74083;42.516;23.358;2024-01-30T13:25:55;89808.34;;;0.34;65.58
8047;BME280;74083;42.516;23.358;2024-01-30T13:28:44;89809.72;;;0.50;64.66
8047;BME280;74083;42.516;23.358;2024-01-30T13:31:30;89804.81;;;0.49;64.93
8047;BME280;74083;42.516;23.358;2024-01-30T13:34:15;89802.56;;;0.34;65.85
8047;BME280;74083;42.516;23.358;2024-01-30T13:37:01;89804.34;;;0.24;65.71
8047;BME280;74083;42.516;23.358;2024-01-30T13:39:47;89801.72;;;0.33;65.52
8047;BME280;74083;42.516;23.358;2024-01-30T13:42:33;89802.66;;;0.28;65.34
8047;BME280;74083;42.516;23.358;2024-01-30T13:45:20;89794.38;;;0.29;65.66
8047;BME280;74083;42.516;23.358;2024-01-30T13:48:06;89806.78;;;0.29;65.80
8047;BME280;74083;42.516;23.358;2024-01-30T13:50:53;89805.94;;;0.27;65.87
8047;BME280;74083;42.516;23.358;2024-01-30T13:53:39;89802.44;;;0.41;65.00
8047;BME280;74083;42.516;23.358;2024-01-30T13:56:24;89804.91;;;0.41;64.86
8047;BME280;74083;42.516;23.358;2024-01-30T13:59:11;89808.34;;;0.33;65.21
8047;BME280;74083;42.516;23.358;2024-01-30T14:01:58;89805.13;;;0.28;65.19
8047;BME280;74083;42.516;23.358;2024-01-30T14:04:44;89810.78;;;0.36;64.78
8047;BME280;74083;42.516;23.358;2024-01-30T14:07:29;89812.47;;;0.34;64.63
8047;BME280;74083;42.516;23.358;2024-01-30T14:10:15;89810.94;;;0.24;64.64
8047;BME280;74083;42.516;23.358;2024-01-30T14:13:01;89815.94;;;0.21;64.86
8047;BME280;74083;42.516;23.358;2024-01-30T14:15:47;89820.03;;;0.25;64.39
8047;BME280;74083;42.516;23.358;2024-01-30T14:18:34;89821.81;;;0.17;64.65
8047;BME280;74083;42.516;23.358;2024-01-30T14:21:20;89824.38;;;0.11;64.82
8047;BME280;74083;42.516;23.358;2024-01-30T14:24:06;89829.38;;;0.08;65.73
8047;BME280;74083;42.516;23.358;2024-01-30T14:26:53;89816.16;;;0.09;64.93
8047;BME280;74083;42.516;23.358;2024-01-30T14:29:39;89815.31;;;0.08;65.00
8047;BME280;74083;42.516;23.358;2024-01-30T14:32:26;89813.78;;;-0.01;65.28
8047;BME280;74083;42.516;23.358;2024-01-30T14:35:14;89813.88;;;-0.07;65.73
8047;BME280;74083;42.516;23.358;2024-01-30T14:37:59;89817.13;;;-0.05;65.26
8047;BME280;74083;42.516;23.358;2024-01-30T14:40:46;89819.59;;;-0.03;64.92
8047;BME280;74083;42.516;23.358;2024-01-30T14:43:31;89813.88;;;-0.08;65.21
8047;BME280;74083;42.516;23.358;2024-01-30T14:46:17;89821.38;;;-0.13;65.24